メインページ
METAR-TAF:

METAR-TAF

空港 :

ラバト=サレ空港

ラバト, モロッコ

緯度: 34-03N, 経度: 006-46W, 海抜: 84m

現時点の気象観測

当レポートは38分前の05:00(UTC)に作成
南東の風 3kt、から南/南西の間で変化する
気温 16°C
湿度 88%
気圧 1016 hPa
視程10km以上
1,500メートル以下は雲なし、積乱雲なし

METAR: GMME 220500Z 13003KT 080V200 CAVOK 16/14 Q1016 NOSIG

時間: 06:38 (05:38 UTC)

予報

当レポートは38分前の05:00(UTC)に作成
予報は22日の 06時(UTC)から 23日の 12時(UTC)まで有効
の風 4kt
視程10km以上
1,500メートル以下は雲なし、積乱雲なし
22日の 07時(UTC)から 22日の 12時(UTC)まで一時的に
変向風 2kt
視程10km以上
高度1600ftの雲は散在している
高度9000ftの雲は散在している
22日の 12時(UTC)から 22日の 18時(UTC)まで一時的に
北東の風 8kt
視程: 6000m
22日の 18時(UTC)から 22日の 24時(UTC)まで一時的に
の風 4kt

TAF: GMME 220500Z 2206/2312 10004KT CAVOK TEMPO 2207/2212 VRB02KT 9999 SCT016 SCT090 TEMPO 2212/2218 04008KT 6000 NSC TEMPO 2218/2224 18004KT

4,000以上の空港の気象観測と天気予報(METAR報とTAF報)

利用可能な観測所は地図上に黄色い丸と赤い丸で示す。

丸の上にカーソルを重ねると観測所名を参照できる。

次にクリックすると気象観測と天気予報を参照できる。

マップの切り替え:黒色「×」印の緑ボタンをクリックして拡大、「-」印の緑ボタンをクリックして縮小、緑色の三角印をクリックして隣りの地図に切り替え


METAR-TAF: